Terminal Aerodrome Forecast
Issued by NWS Sioux Falls, SD

Home | Current Version | Previous Version | Graphics & Text | Print | Product List | Glossary Off
Versions: 1 2 3 4 5 6 7 8 9 10 11 12 13 14 15 16 17 18

000
FTUS43 KFSD 301449 AAB
TAFFSD
TAF AMD
KFSD 301449Z 3015/0112 31014G22KT 3SM -SN OVC012
      TEMPO 3015/3017 1SM -SN BR OVC008
     FM301700 31015KT 4SM -SN OVC015
     FM302200 30014KT P6SM VCSH OVC015
     FM010000 30012KT P6SM OVC015=

USA.gov is the U.S. government's official web portal to all federal, state and local government web resources and services.